createdAt,value
2022-12-12T00:02:22.115Z,100388.75
2022-12-12T00:07:24.174Z,100390.72
2022-12-12T00:12:26.315Z,100394.53
2022-12-12T00:17:28.511Z,100403.69
2022-12-12T00:22:30.575Z,100406.03
2022-12-12T00:27:34.041Z,100409.19
2022-12-12T00:32:36.311Z,100414.66
2022-12-12T00:37:38.265Z,100407.63
2022-12-12T00:42:40.233Z,100415.63
2022-12-12T00:47:42.110Z,100413.88
2022-12-12T00:52:43.896Z,100419.25
2022-12-12T00:57:45.880Z,100411.38
2022-12-12T01:02:47.929Z,100421.84
2022-12-12T01:07:50.122Z,100423.56
2022-12-12T01:12:52.035Z,100436.09
2022-12-12T01:17:54.099Z,100441.00
2022-12-12T01:22:57.055Z,100443.22
2022-12-12T01:27:59.664Z,100449.81
2022-12-12T01:33:01.855Z,100456.19
2022-12-12T01:38:04.004Z,100464.31
2022-12-12T01:43:16.231Z,100463.69
2022-12-12T01:48:19.564Z,100460.09
2022-12-12T01:53:21.892Z,100465.53
2022-12-12T01:58:24.246Z,100474.25
2022-12-12T02:03:26.594Z,100471.00
2022-12-12T02:08:30.085Z,100462.44
2022-12-12T02:13:33.702Z,100470.88
2022-12-12T02:18:50.744Z,100464.78
2022-12-12T02:24:25.909Z,100469.72
2022-12-12T02:29:47.086Z,100471.91
2022-12-12T02:35:15.851Z,100474.81
2022-12-12T02:40:34.083Z,100475.69
2022-12-12T02:45:44.638Z,100467.25
2022-12-12T02:50:50.120Z,100465.94
2022-12-12T02:56:05.732Z,100470.81
2022-12-12T03:01:21.089Z,100471.44
2022-12-12T03:07:13.734Z,100466.47
2022-12-12T03:12:26.881Z,100462.47
2022-12-12T03:17:36.454Z,100456.94
2022-12-12T03:22:47.401Z,100461.03
2022-12-12T03:27:53.481Z,100459.19
2022-12-12T03:33:11.839Z,100463.69
2022-12-12T03:38:13.893Z,100452.00
2022-12-12T03:43:25.142Z,100458.47
2022-12-12T03:48:34.932Z,100457.09
2022-12-12T03:53:47.411Z,100462.22
2022-12-12T03:59:15.577Z,100468.41
2022-12-12T04:04:25.116Z,100476.16
2022-12-12T04:09:46.227Z,100471.56
2022-12-12T04:15:03.162Z,100474.69
2022-12-12T04:20:50.232Z,100470.97
2022-12-12T04:26:36.831Z,100485.69
2022-12-12T04:31:49.244Z,100489.41
2022-12-12T04:36:51.786Z,100500.59
2022-12-12T04:41:55.288Z,100497.53
2022-12-12T04:46:59.883Z,100498.81
2022-12-12T04:52:07.119Z,100498.44
2022-12-12T04:57:13.631Z,100507.41
2022-12-12T05:02:24.623Z,100503.25
2022-12-12T05:07:39.709Z,100505.78
2022-12-12T05:12:50.988Z,100504.06
2022-12-12T05:18:03.479Z,100509.19
2022-12-12T05:23:05.999Z,100499.13
2022-12-12T05:28:08.230Z,100502.22
2022-12-12T05:33:10.017Z,100499.81
2022-12-12T05:38:12.280Z,100504.38
2022-12-12T05:43:14.341Z,100519.56
2022-12-12T05:48:20.992Z,100512.44
2022-12-12T05:53:26.036Z,100516.66
2022-12-12T05:58:28.055Z,100515.75
2022-12-12T06:03:30.770Z,100525.78
2022-12-12T06:08:32.639Z,100524.00
2022-12-12T06:13:34.953Z,100534.38
2022-12-12T06:18:37.738Z,100540.59
2022-12-12T06:23:41.258Z,100542.44
2022-12-12T06:28:43.620Z,100548.41
2022-12-12T06:33:45.559Z,100553.81
2022-12-12T06:38:47.457Z,100548.06
2022-12-12T06:43:49.597Z,100551.66
2022-12-12T06:48:52.047Z,100558.75
2022-12-12T06:53:54.139Z,100557.03
2022-12-12T06:58:56.125Z,100559.59
2022-12-12T07:03:58.695Z,100556.91
2022-12-12T07:09:00.921Z,100556.50
2022-12-12T07:14:05.976Z,100565.19
2022-12-12T07:19:07.851Z,100555.69
2022-12-12T07:24:09.888Z,100558.41
2022-12-12T07:29:11.951Z,100559.47
2022-12-12T07:34:14.085Z,100563.56
2022-12-12T07:39:20.713Z,100577.81
2022-12-12T07:44:23.245Z,100586.41
2022-12-12T07:49:25.555Z,100585.50
2022-12-12T07:54:27.386Z,100592.72
2022-12-12T07:59:29.545Z,100594.56
2022-12-12T08:04:31.964Z,100595.69
2022-12-12T08:09:33.896Z,100598.28
2022-12-12T08:14:37.619Z,100606.03
2022-12-12T08:19:39.550Z,100605.13
2022-12-12T08:24:41.603Z,100608.84
2022-12-12T08:29:44.350Z,100612.91
2022-12-12T08:34:46.454Z,100618.06
2022-12-12T08:39:52.811Z,100615.59
2022-12-12T08:44:57.583Z,100612.91
2022-12-12T08:49:59.443Z,100614.16
2022-12-12T08:55:01.244Z,100630.72
2022-12-12T09:00:05.185Z,100637.50
2022-12-12T09:05:07.244Z,100635.28
2022-12-12T09:10:09.876Z,100635.38
2022-12-12T09:15:12.421Z,100624.69
2022-12-12T09:20:14.455Z,100628.03
2022-12-12T09:25:16.517Z,100635.72
2022-12-12T09:30:18.745Z,100635.94
2022-12-12T09:35:20.985Z,100635.25
2022-12-12T09:40:53.201Z,100629.03
2022-12-12T09:45:55.612Z,100634.22
2022-12-12T09:50:57.575Z,100634.81
2022-12-12T09:56:25.725Z,100636.63
2022-12-12T10:01:42.787Z,100636.97
2022-12-12T10:06:52.992Z,100637.94
2022-12-12T10:11:56.938Z,100637.91
2022-12-12T10:17:00.230Z,100641.28
2022-12-12T10:22:10.092Z,100628.59
2022-12-12T10:27:15.010Z,100620.03
2022-12-12T10:32:20.200Z,100633.97
2022-12-12T10:37:33.904Z,100630.25
2022-12-12T10:42:36.059Z,100631.91
2022-12-12T10:47:37.984Z,100633.25
2022-12-12T10:52:39.768Z,100622.56
2022-12-12T10:57:41.788Z,100619.06
2022-12-12T11:02:44.991Z,100612.06
2022-12-12T11:07:50.688Z,100611.69
2022-12-12T11:13:23.529Z,100603.09
2022-12-12T11:18:26.463Z,100603.97
2022-12-12T11:23:29.478Z,100602.34
2022-12-12T11:28:36.608Z,100611.50
2022-12-12T11:33:45.018Z,100594.75
2022-12-12T11:38:53.692Z,100593.94
2022-12-12T11:44:00.174Z,100580.78
2022-12-12T11:49:05.686Z,100574.84
2022-12-12T11:54:23.673Z,100576.53
2022-12-12T11:59:34.238Z,100567.75
2022-12-12T12:04:53.266Z,100563.28
2022-12-12T12:10:22.543Z,100563.25
2022-12-12T12:15:28.717Z,100578.13
2022-12-12T12:21:12.766Z,100563.94
2022-12-12T12:26:23.503Z,100559.81
2022-12-12T12:31:43.715Z,100560.88
2022-12-12T12:37:10.378Z,100552.28
2022-12-12T12:42:21.068Z,100543.34
2022-12-12T12:47:39.880Z,100546.69
2022-12-12T12:52:48.826Z,100548.94
2022-12-12T12:57:52.058Z,100547.59
2022-12-12T13:02:57.593Z,100550.25
2022-12-12T13:08:30.113Z,100541.34
2022-12-12T13:13:36.882Z,100536.97
2022-12-12T13:18:47.821Z,100540.59
2022-12-12T13:24:05.775Z,100534.53
2022-12-12T13:29:19.695Z,100528.28
2022-12-12T13:34:26.012Z,100522.22
2022-12-12T13:39:35.168Z,100528.28
2022-12-12T13:44:48.329Z,100531.50
2022-12-12T13:50:10.030Z,100529.81
2022-12-12T13:55:12.983Z,100526.13
2022-12-12T14:00:17.697Z,100527.72
2022-12-12T14:05:28.054Z,100528.00
2022-12-12T14:10:52.621Z,100528.19
2022-12-12T14:15:57.433Z,100535.31
2022-12-12T14:21:03.830Z,100535.94
2022-12-12T14:26:27.602Z,100528.19
2022-12-12T14:31:35.934Z,100525.50
2022-12-12T14:37:03.462Z,100529.00
2022-12-12T14:42:19.547Z,100533.53
2022-12-12T14:47:21.754Z,100532.78
2022-12-12T14:52:24.337Z,100523.81
2022-12-12T14:57:26.269Z,100530.78
2022-12-12T15:02:35.215Z,100545.44
2022-12-12T15:07:41.343Z,100544.00
2022-12-12T15:12:44.739Z,100552.97
2022-12-12T15:17:50.055Z,100541.59
2022-12-12T15:23:01.361Z,100551.16
2022-12-12T15:28:03.306Z,100558.28
2022-12-12T15:33:08.030Z,100556.47
2022-12-12T15:38:13.676Z,100552.78
2022-12-12T15:43:19.352Z,100563.69
2022-12-12T15:48:21.815Z,100568.59
2022-12-12T15:53:33.225Z,100578.34
2022-12-12T15:58:41.390Z,100573.91
2022-12-12T16:04:21.868Z,100566.91
2022-12-12T16:09:26.776Z,100575.75
2022-12-12T16:14:42.841Z,100578.09
2022-12-12T16:19:52.688Z,100588.84
2022-12-12T16:24:57.646Z,100578.22
2022-12-12T16:29:59.723Z,100571.09
2022-12-12T16:35:02.106Z,100578.84
2022-12-12T16:40:04.292Z,100566.66
2022-12-12T16:45:06.745Z,100571.38
2022-12-12T16:50:09.938Z,100568.28
2022-12-12T16:55:23.865Z,100579.06
2022-12-12T17:00:25.745Z,100581.38
2022-12-12T17:05:28.503Z,100587.53
2022-12-12T17:10:32.332Z,100570.25
2022-12-12T17:15:35.192Z,100567.47
2022-12-12T17:20:38.427Z,100571.03
2022-12-12T17:25:40.413Z,100563.03
2022-12-12T17:30:42.812Z,100567.38
2022-12-12T17:35:44.957Z,100580.69
2022-12-12T17:40:47.185Z,100581.31
2022-12-12T17:46:01.323Z,100575.75
2022-12-12T17:51:06.484Z,100568.47
2022-12-12T17:56:10.669Z,100565.78
2022-12-12T18:01:27.618Z,100571.63
2022-12-12T18:06:34.696Z,100573.91
2022-12-12T18:11:38.479Z,100574.69
2022-12-12T18:16:40.515Z,100567.34
2022-12-12T18:22:00.538Z,100561.78
2022-12-12T18:27:03.844Z,100556.16
2022-12-12T18:32:06.092Z,100564.13
2022-12-12T18:37:08.346Z,100558.47
2022-12-12T18:42:11.606Z,100551.94
2022-12-12T18:47:13.915Z,100540.34
2022-12-12T18:52:15.776Z,100564.88
2022-12-12T18:57:18.094Z,100564.25
2022-12-12T19:02:20.125Z,100566.41
2022-12-12T19:07:22.156Z,100568.25
2022-12-12T19:12:24.143Z,100563.75
2022-12-12T19:17:27.096Z,100566.72
2022-12-12T19:22:46.004Z,100571.03
2022-12-12T19:27:48.630Z,100565.59
2022-12-12T19:32:50.766Z,100559.94
2022-12-12T19:37:52.894Z,100559.81
2022-12-12T19:42:54.930Z,100551.72
2022-12-12T19:47:56.989Z,100550.41
2022-12-12T19:52:58.937Z,100552.47
2022-12-12T19:58:02.792Z,100559.81
2022-12-12T20:03:04.941Z,100560.31
2022-12-12T20:08:06.917Z,100559.88
2022-12-12T20:13:08.992Z,100563.00
2022-12-12T20:18:14.878Z,100562.09
2022-12-12T20:23:18.531Z,100570.41
2022-12-12T20:28:20.369Z,100571.38
2022-12-12T20:33:22.219Z,100563.88
2022-12-12T20:38:25.457Z,100564.38
2022-12-12T20:43:29.039Z,100572.34
2022-12-12T20:48:31.247Z,100565.16
2022-12-12T20:53:36.583Z,100568.16
2022-12-12T20:58:39.297Z,100568.66
2022-12-12T21:03:41.956Z,100567.56
2022-12-12T21:08:46.268Z,100574.84
2022-12-12T21:13:50.778Z,100574.56
2022-12-12T21:18:58.124Z,100564.81
2022-12-12T21:24:00.346Z,100563.03
2022-12-12T21:29:03.760Z,100572.97
2022-12-12T21:34:06.541Z,100577.72
2022-12-12T21:39:08.522Z,100571.25
2022-12-12T21:44:10.378Z,100565.22
2022-12-12T21:49:41.841Z,100565.47
2022-12-12T21:54:43.740Z,100560.50
2022-12-12T21:59:49.038Z,100550.22
2022-12-12T22:04:51.249Z,100555.53
2022-12-12T22:09:57.714Z,100565.06
2022-12-12T22:15:13.033Z,100564.03
2022-12-12T22:20:15.307Z,100562.72
2022-12-12T22:25:17.330Z,100559.31
2022-12-12T22:30:19.098Z,100558.16
2022-12-12T22:35:20.818Z,100559.81
2022-12-12T22:40:22.585Z,100561.72
2022-12-12T22:45:25.061Z,100561.84
2022-12-12T22:50:27.445Z,100559.59
2022-12-12T22:55:29.259Z,100559.13
2022-12-12T23:00:31.852Z,100557.00
2022-12-12T23:05:34.023Z,100554.88
2022-12-12T23:10:36.133Z,100561.16
2022-12-12T23:15:42.043Z,100551.94
2022-12-12T23:20:46.012Z,100547.78
2022-12-12T23:25:47.966Z,100539.81
2022-12-12T23:30:49.870Z,100542.00
2022-12-12T23:35:51.966Z,100539.63
2022-12-12T23:40:54.042Z,100529.28
2022-12-12T23:45:56.379Z,100529.47
2022-12-12T23:50:59.554Z,100527.84
2022-12-12T23:56:04.848Z,100533.47
